Terminal Aerodrome Forecast
Issued by NWS Cleveland, OH

Home | Current Version | Previous Version | Graphics & Text | Print | Product List | Glossary On
Versions: 1 2 3 4 5 6 7 8 9 10 11 12 13 14 15 16 17 18 19 20 21 22 23 24 25 26 27 28 29 30 31 32
000
FTUS41 KCLE 251800 AAA
TAFCLE
TAF AMD
KCLE 251845Z 2519/2624 23016G24KT P6SM VCSH SCT025 OVC040
      TEMPO 2519/2523 BKN025
     FM260000 24007KT P6SM SCT025 BKN250
     FM261100 36005KT 5SM -RA BR BKN040 OVC100
     FM261300 34007KT 3SM -RA BR BKN008 OVC020
     FM262100 29009KT 5SM -RASN BR OVC015=

USA.gov is the U.S. government's official web portal to all federal, state and local government web resources and services.